createdAt,value
2023-03-12T00:03:50.524Z,2.75
2023-03-12T00:08:54.422Z,2.17
2023-03-12T00:14:00.150Z,4.43
2023-03-12T00:24:07.559Z,3.58
2023-03-12T00:34:12.666Z,3.67
2023-03-12T00:39:14.668Z,6.63
2023-03-12T00:44:16.654Z,3.15
2023-03-12T00:49:19.964Z,3.85
2023-03-12T00:54:22.310Z,5.25
2023-03-12T00:59:24.300Z,4.75
2023-03-12T01:04:27.680Z,3.35
2023-03-12T01:09:29.653Z,3.95
2023-03-12T01:14:31.710Z,5.78
2023-03-12T01:19:34.993Z,7.25
2023-03-12T01:24:37.104Z,3.50
2023-03-12T01:29:39.071Z,2.83
2023-03-12T01:34:42.593Z,4.38
2023-03-12T01:39:44.548Z,3.08
2023-03-12T01:44:51.863Z,3.60
2023-03-12T01:49:55.981Z,3.75
2023-03-12T01:55:02.371Z,4.03
2023-03-12T02:00:08.835Z,4.20
2023-03-12T02:05:19.433Z,4.05
2023-03-12T02:15:24.035Z,2.22
2023-03-12T02:20:34.729Z,3.72
2023-03-12T02:25:40.899Z,2.45
2023-03-12T02:30:45.347Z,1.92
2023-03-12T02:35:48.149Z,3.50
2023-03-12T02:40:52.251Z,2.33
2023-03-12T02:45:55.634Z,1.88
2023-03-12T02:50:57.615Z,3.70
2023-03-12T02:56:01.019Z,1.92
2023-03-12T03:01:03.508Z,0.90
2023-03-12T03:06:05.832Z,2.50
2023-03-12T03:11:09.262Z,0.80
2023-03-12T03:16:12.374Z,1.75
2023-03-12T03:21:18.656Z,2.65
2023-03-12T03:26:23.837Z,1.25
2023-03-12T03:31:26.473Z,1.45
2023-03-12T03:36:28.593Z,2.35
2023-03-12T03:41:32.966Z,1.88
2023-03-12T03:51:42.595Z,1.83
2023-03-12T04:01:47.827Z,1.98
2023-03-12T04:06:49.754Z,1.73
2023-03-12T04:11:53.035Z,2.00
2023-03-12T04:16:54.992Z,3.03
2023-03-12T04:21:56.913Z,1.15
2023-03-12T04:27:00.372Z,1.27
2023-03-12T04:32:02.333Z,1.48
2023-03-12T04:37:04.349Z,1.10
2023-03-12T04:42:08.427Z,3.13
2023-03-12T04:47:10.403Z,1.95
2023-03-12T04:52:12.474Z,1.85
2023-03-12T04:57:15.874Z,1.75
2023-03-12T05:02:17.836Z,2.08
2023-03-12T05:07:19.898Z,0.68
2023-03-12T05:12:23.163Z,0.70
2023-03-12T05:17:25.094Z,1.63
2023-03-12T05:22:27.186Z,2.05
2023-03-12T05:27:31.946Z,1.13
2023-03-12T05:32:34.037Z,1.00
2023-03-12T05:37:36.071Z,1.38
2023-03-12T05:42:39.448Z,2.08
2023-03-12T05:47:41.457Z,1.65
2023-03-12T05:52:43.392Z,1.35
2023-03-12T05:57:46.992Z,2.10
2023-03-12T06:02:48.913Z,1.25
2023-03-12T06:07:50.946Z,2.30
2023-03-12T06:12:54.289Z,2.20
2023-03-12T06:17:56.282Z,1.08
2023-03-12T06:22:58.224Z,1.85
2023-03-12T06:28:01.608Z,2.20
2023-03-12T06:33:04.753Z,1.00
2023-03-12T06:38:06.819Z,0.75
2023-03-12T06:43:12.209Z,0.60
2023-03-12T06:48:14.238Z,1.10
2023-03-12T06:53:16.375Z,1.20
2023-03-12T06:58:20.105Z,1.15
2023-03-12T07:03:22.468Z,1.77
2023-03-12T07:08:25.439Z,2.05
2023-03-12T07:13:28.930Z,1.98
2023-03-12T07:18:31.179Z,2.10
2023-03-12T07:23:33.441Z,1.50
2023-03-12T07:28:37.166Z,0.43
2023-03-12T07:33:39.375Z,1.23
2023-03-12T07:38:41.568Z,1.98
2023-03-12T07:43:45.094Z,0.25
2023-03-12T07:48:47.458Z,1.02
2023-03-12T07:53:49.642Z,0.90
2023-03-12T07:58:53.987Z,0.75
2023-03-12T08:03:56.203Z,0.30
2023-03-12T08:08:58.415Z,2.03
2023-03-12T08:14:01.737Z,2.28
2023-03-12T08:19:03.798Z,1.02
2023-03-12T08:24:06.327Z,1.05
2023-03-12T08:29:09.765Z,0.38
2023-03-12T08:34:11.800Z,1.20
2023-03-12T08:39:13.816Z,1.35
2023-03-12T08:44:17.240Z,0.73
2023-03-12T08:49:20.630Z,1.25
2023-03-12T08:54:22.832Z,0.82
2023-03-12T08:59:26.259Z,0.88
2023-03-12T09:04:28.285Z,1.38
2023-03-12T09:09:30.452Z,0.98
2023-03-12T09:15:01.910Z,1.92
2023-03-12T09:19:55.684Z,1.50
2023-03-12T09:24:58.768Z,0.98
2023-03-12T09:30:02.431Z,0.82
2023-03-12T09:35:07.089Z,0.60
2023-03-12T09:40:16.816Z,1.40
2023-03-12T09:45:22.962Z,1.27
2023-03-12T09:50:28.320Z,1.30
2023-03-12T09:55:36.860Z,1.33
2023-03-12T10:00:40.303Z,1.10
2023-03-12T10:05:46.761Z,1.67
2023-03-12T10:10:55.420Z,0.85
2023-03-12T10:16:08.507Z,0.68
2023-03-12T10:21:18.875Z,0.60
2023-03-12T10:26:25.969Z,0.95
2023-03-12T10:31:34.439Z,0.82
2023-03-12T10:36:39.459Z,1.17
2023-03-12T10:41:43.393Z,1.23
2023-03-12T10:47:00.817Z,1.80
2023-03-12T10:52:06.805Z,0.88
2023-03-12T10:57:08.874Z,1.02
2023-03-12T11:02:30.260Z,1.38
2023-03-12T11:07:33.521Z,0.88
2023-03-12T11:12:37.284Z,1.63
2023-03-12T11:22:42.473Z,2.08
2023-03-12T11:27:49.117Z,1.20
2023-03-12T11:32:53.053Z,1.30
2023-03-12T11:38:03.180Z,1.80
2023-03-12T11:43:32.424Z,0.88
2023-03-12T11:48:54.907Z,0.88
2023-03-12T11:54:18.898Z,3.25
2023-03-12T11:59:50.902Z,1.65
2023-03-12T12:05:12.550Z,0.90
2023-03-12T12:10:25.823Z,1.23
2023-03-12T12:15:36.718Z,1.40
2023-03-12T12:20:46.882Z,1.80
2023-03-12T12:26:07.029Z,1.25
2023-03-12T12:31:24.146Z,0.63
2023-03-12T12:36:32.119Z,1.35
2023-03-12T12:41:38.497Z,1.35
2023-03-12T12:46:45.290Z,1.27
2023-03-12T12:51:53.502Z,1.30
2023-03-12T12:57:03.545Z,0.80
2023-03-12T13:02:16.916Z,0.73
2023-03-12T13:07:34.237Z,1.73
2023-03-12T13:12:43.463Z,1.25
2023-03-12T13:18:03.080Z,1.63
2023-03-12T13:23:25.403Z,2.13
2023-03-12T13:28:35.926Z,2.17
2023-03-12T13:33:42.494Z,1.17
2023-03-12T13:38:58.865Z,1.83
2023-03-12T13:44:21.160Z,1.73
2023-03-12T13:49:24.188Z,2.20
2023-03-12T13:54:33.200Z,1.67
2023-03-12T13:59:36.480Z,1.95
2023-03-12T14:04:41.388Z,2.28
2023-03-12T14:09:53.569Z,1.85
2023-03-12T14:15:13.466Z,2.30
2023-03-12T14:20:19.684Z,1.30
2023-03-12T14:25:33.254Z,2.47
2023-03-12T14:30:44.658Z,2.55
2023-03-12T14:35:51.537Z,1.52
2023-03-12T14:41:00.778Z,1.38
2023-03-12T14:46:05.743Z,3.35
2023-03-12T14:51:08.341Z,1.88
2023-03-12T14:56:15.168Z,1.60
2023-03-12T15:01:19.365Z,2.30
2023-03-12T15:06:27.769Z,2.33
2023-03-12T15:11:33.313Z,2.40
2023-03-12T15:16:36.077Z,2.10
2023-03-12T15:21:38.436Z,2.72
2023-03-12T15:26:43.763Z,2.33
2023-03-12T15:31:47.085Z,1.95
2023-03-12T15:36:49.994Z,3.22
2023-03-12T15:41:54.504Z,3.08
2023-03-12T15:47:11.346Z,2.97
2023-03-12T15:52:29.203Z,2.38
2023-03-12T15:57:34.141Z,3.40
2023-03-12T16:02:37.587Z,1.75
2023-03-12T16:07:39.752Z,1.50
2023-03-12T16:12:44.477Z,1.50
2023-03-12T16:17:46.497Z,1.52
2023-03-12T16:22:48.995Z,1.27
2023-03-12T16:27:55.146Z,1.30
2023-03-12T16:32:58.947Z,0.93
2023-03-12T16:38:01.787Z,1.20
2023-03-12T16:43:11.758Z,1.40
2023-03-12T16:48:15.647Z,0.90
2023-03-12T16:53:18.105Z,0.82
2023-03-12T16:58:23.186Z,0.98
2023-03-12T17:03:31.728Z,1.77
2023-03-12T17:08:35.884Z,1.40
2023-03-12T17:13:39.286Z,1.13
2023-03-12T17:18:41.478Z,1.70
2023-03-12T17:23:46.097Z,1.40
2023-03-12T17:28:50.034Z,1.30
2023-03-12T17:33:52.150Z,1.08
2023-03-12T17:38:54.337Z,0.82
2023-03-12T17:44:01.563Z,1.90
2023-03-12T17:49:03.857Z,1.30
2023-03-12T17:54:05.916Z,0.88
2023-03-12T17:59:09.508Z,1.58
2023-03-12T18:04:12.575Z,2.05
2023-03-12T18:09:14.609Z,2.35
2023-03-12T18:14:20.329Z,1.70
2023-03-12T18:19:27.012Z,2.03
2023-03-12T18:24:29.574Z,1.33
2023-03-12T18:29:34.592Z,1.70
2023-03-12T18:34:37.716Z,1.40
2023-03-12T18:39:40.972Z,1.38
2023-03-12T18:44:44.449Z,1.88
2023-03-12T18:49:46.640Z,0.90
2023-03-12T18:54:48.689Z,0.45
2023-03-12T18:59:52.005Z,0.77
2023-03-12T19:04:56.130Z,1.65
2023-03-12T19:09:58.415Z,1.63
2023-03-12T19:15:01.797Z,1.40
2023-03-12T19:20:06.023Z,1.23
2023-03-12T19:25:08.820Z,1.45
2023-03-12T19:30:13.798Z,1.25
2023-03-12T19:35:15.829Z,1.77
2023-03-12T19:40:18.113Z,1.50
2023-03-12T19:45:21.460Z,2.15
2023-03-12T19:50:25.654Z,1.77
2023-03-12T19:55:27.940Z,1.60
2023-03-12T20:00:31.564Z,2.05
2023-03-12T20:10:35.668Z,1.25
2023-03-12T20:15:40.221Z,1.02
2023-03-12T20:20:43.032Z,1.20
2023-03-12T20:25:47.834Z,3.05
2023-03-12T20:30:52.184Z,1.83
2023-03-12T20:35:55.967Z,2.58
2023-03-12T20:40:58.033Z,1.02
2023-03-12T20:46:01.468Z,2.08
2023-03-12T20:51:03.831Z,1.35
2023-03-12T20:56:07.219Z,2.05
2023-03-12T21:01:11.064Z,1.77
2023-03-12T21:06:13.169Z,1.65
2023-03-12T21:11:15.180Z,1.92
2023-03-12T21:16:18.573Z,1.35
2023-03-12T21:21:20.557Z,1.83
2023-03-12T21:26:22.516Z,1.23
2023-03-12T21:31:27.012Z,1.58
2023-03-12T21:36:29.280Z,2.03
2023-03-12T21:41:31.248Z,1.73
2023-03-12T21:46:34.825Z,1.77
2023-03-12T21:56:41.765Z,1.38
2023-03-12T22:01:45.130Z,1.10
2023-03-12T22:06:47.373Z,1.90
2023-03-12T22:11:49.461Z,1.73
2023-03-12T22:16:52.803Z,1.48
2023-03-12T22:21:54.826Z,1.48
2023-03-12T22:26:56.795Z,2.75
2023-03-12T22:32:00.230Z,1.85
2023-03-12T22:37:02.203Z,1.63
2023-03-12T22:42:04.414Z,1.98
2023-03-12T22:47:08.544Z,2.13
2023-03-12T22:52:10.512Z,1.90
2023-03-12T22:57:12.510Z,2.03
2023-03-12T23:02:15.981Z,2.63
2023-03-12T23:07:18.094Z,1.20
2023-03-12T23:12:20.175Z,3.13
2023-03-12T23:17:23.635Z,2.47
2023-03-12T23:22:25.699Z,2.15
2023-03-12T23:27:27.731Z,1.90
2023-03-12T23:32:31.047Z,2.00
2023-03-12T23:37:33.069Z,1.80
2023-03-12T23:42:35.006Z,1.38
2023-03-12T23:47:38.360Z,1.70
2023-03-12T23:52:40.372Z,1.70
2023-03-12T23:57:42.309Z,2.13
